Airport ID:K63S
Update Time (UTC):26/05/2022 18:18
Wind Speed (Knots):3
Wind Direction (Magnetic):230
Temperature (°C):18
Dew Point (°C):10
Humidity (%):58
Altimeter (inHg):29.91
Density Altitude (Feet):2900
Visibility:10+
Clouds (Hundreds of feet):CLR
Present Weather:
METAR:METAR K63S 261815Z AUTO 00000KT 10SM CLR 18/10 A2991 RMK A01

The data displayed is for advisory purposes only and is not to be used for flight planning or operations.